Latest Weather Observations for Redland (Alexandra Hills)

IDQ60901

Issued at 6:01 pm EST Tuesday 10 December 2019 (issued every 10 minutes, with the page automatically refreshed every 10 minutes)

About weather observations | Map of Brisbane area stations | Latest observations for Brisbane area | Other Formats
Station Details ID: 140007 Name: REDLAND (ALEXANDRA HILLS) Lat: -27.54 Lon: 153.24 Height: 50.53 m
Data from the previous 72 hours. | See also: Recent months at Redland (Alexandra Hills)
Date/Time
EST
Temp
°C
App
Temp
°C
Dew
Point
°C
Rel
Hum
%
Delta-T
°C
Wind Press
QNH
hPa
Press
MSL
hPa
Rain since
9am
mm
Dir  Spd
km/h
Gust
km/h
Spd
kts
Gust
kts
10/06:00pm 26.7 26.5 18.6 61 5.2 N 17 30 9 16 - - 0.0
10/05:30pm 27.3 26.6 18.6 59 5.6 N 20 32 11 17 - - 0.0
10/05:00pm 27.9 27.4 18.6 57 6.0 NNE 19 32 10 17 - - 0.0
10/04:30pm 28.1 27.8 19.6 60 5.5 NNE 20 32 11 17 - - 0.0
10/04:00pm 28.0 27.4 19.8 61 5.4 NNE 22 33 12 18 - - 0.0
10/03:30pm 28.4 28.2 19.3 57 5.9 N 19 30 10 16 - - 0.0
10/03:00pm 29.6 29.9 19.6 55 6.5 NNE 17 28 9 15 - - 0.0
10/02:30pm 28.8 27.7 18.6 54 6.6 NNE 22 32 12 17 - - 0.0
10/02:00pm 28.8 28.1 18.6 54 6.6 NNE 20 32 11 17 - - 0.0
10/01:30pm 29.7 29.3 18.8 52 7.1 NNE 19 28 10 15 - - 0.0
10/01:00pm 28.9 28.4 18.7 54 6.6 NNE 19 28 10 15 - - 0.0
10/12:30pm 28.5 28.1 19.4 57 5.9 NNE 20 30 11 16 - - 0.0
10/12:00pm 29.6 30.2 21.0 60 5.7 NE 19 30 10 16 - - 0.0
10/11:30am 29.0 28.6 18.1 51 7.0 N 17 28 9 15 - - 0.0
10/11:00am 29.5 29.1 18.0 50 7.4 N 17 24 9 13 - - 0.0
10/10:30am 29.2 29.4 18.6 52 6.8 N 15 24 8 13 - - 0.0
10/10:00am 29.4 30.4 19.4 55 6.5 N 13 19 7 10 - - 0.0
10/09:30am 28.1 28.3 18.5 56 6.2 N 15 20 8 11 - - 0.0
10/09:00am 27.8 29.2 19.6 61 5.3 N 11 20 6 11 - - 0.0
10/08:30am 26.9 28.1 19.8 65 4.6 N 13 20 7 11 - - 0.0
10/08:00am 26.0 28.0 20.8 73 3.4 N 11 19 6 10 - - 0.0
10/07:30am 25.7 28.5 21.6 78 2.7 N 9 13 5 7 - - 0.0
10/07:00am 25.4 28.8 21.7 80 2.5 N 6 11 3 6 - - 0.0
10/06:30am 24.5 28.5 22.0 86 1.7 NW 4 7 2 4 - - 0.0
10/06:00am 23.8 28.0 21.7 88 1.4 WNW 2 6 1 3 - - 0.0
10/05:30am 23.6 27.7 21.5 88 1.4 WNW 2 4 1 2 - - 0.0
10/05:00am 23.5 28.0 21.6 89 1.3 CALM 0 0 0 0 - - 0.0
10/04:30am 23.7 28.2 21.6 88 1.4 CALM 0 0 0 0 - - 0.0
10/04:00am 23.9 27.6 21.4 86 1.7 WNW 4 7 2 4 - - 0.0
10/03:30am 23.8 27.4 21.3 86 1.6 N 4 9 2 5 - - 0.0
10/03:00am 23.6 26.7 21.1 86 1.6 NNE 6 6 3 3 - - 0.0
10/02:30am 23.2 26.4 21.3 89 1.3 NNE 6 9 3 5 - - 0.0
10/02:00am 23.2 26.4 21.3 89 1.3 NE 6 7 3 4 - - 0.0
10/01:30am 23.0 26.5 21.1 89 1.2 NNE 4 6 2 3 - - 0.0
10/01:00am 23.4 27.0 21.3 88 1.4 NNE 4 7 2 4 - - 0.0
10/12:30am 23.6 27.3 21.5 88 1.4 NNE 4 7 2 4 - - 0.0
10/12:00am 23.5 28.0 21.6 89 1.3 CALM 0 4 0 2 - - 0.0
 
Date/Time
EST
Temp
°C
App
Temp
°C
Dew
Point
°C
Rel
Hum
%
Delta-T
°C
Wind Press
QNH
hPa
Press
MSL
hPa
Rain since
9am
mm
Dir  Spd
km/h
Gust
km/h
Spd
kts
Gust
kts
09/11:30pm 23.7 27.7 22.0 90 1.1 NNE 4 6 2 3 - - 0.0
09/11:00pm 23.6 27.1 21.9 90 1.1 NNE 6 6 3 3 - - 0.0
09/10:30pm 23.6 27.1 21.9 90 1.1 N 6 7 3 4 - - 0.0
09/10:00pm 24.0 27.5 21.9 88 1.4 NNE 6 9 3 5 - - 0.0
09/09:30pm 24.0 27.1 21.5 86 1.7 NNE 7 9 4 5 - - 0.0
09/09:00pm 24.2 27.4 21.3 84 1.9 NNE 6 9 3 5 - - 0.0
09/08:30pm 24.6 27.8 21.3 82 2.2 N 6 9 3 5 - - 0.0
09/08:00pm 25.0 28.3 21.9 83 2.1 NNE 7 11 4 6 - - 0.0
09/07:30pm 25.0 28.2 21.7 82 2.2 NNE 7 13 4 7 - - 0.0
09/07:00pm 25.5 29.0 22.2 82 2.2 ENE 7 11 4 6 - - 0.0
09/06:30pm 25.5 29.1 22.0 81 2.3 E 6 11 3 6 - - 0.0
09/06:00pm 25.8 29.1 21.9 79 2.6 E 7 15 4 8 - - 0.0
09/05:30pm 26.2 29.3 22.1 78 2.8 E 9 17 5 9 - - 0.0
09/05:00pm 26.7 29.7 21.9 75 3.2 E 9 20 5 11 - - 0.0
09/04:30pm 27.3 29.7 21.6 71 3.8 ESE 11 20 6 11 - - 0.0
09/04:00pm 27.8 29.8 21.6 69 4.2 E 13 20 7 11 - - 0.0
09/03:30pm 27.6 29.2 21.4 69 4.1 E 15 24 8 13 - - 0.0
09/03:00pm 27.9 29.3 21.0 66 4.6 E 15 28 8 15 - - 0.0
09/02:30pm 27.9 29.3 21.0 66 4.6 E 15 26 8 14 - - 0.0
09/02:00pm 28.5 29.8 20.8 63 5.1 E 15 26 8 14 - - 0.0
09/01:30pm 28.9 29.9 21.1 62 5.2 E 17 30 9 16 - - 0.0
09/01:00pm 29.0 30.2 20.7 61 5.5 ESE 15 28 8 15 - - 0.0
09/12:30pm 28.5 29.2 20.5 62 5.3 ESE 17 32 9 17 - - 0.0
09/12:00pm 29.0 29.8 20.7 61 5.5 ESE 17 28 9 15 - - 0.0
09/11:30am 28.7 29.4 20.4 60 5.5 E 17 28 9 15 - - 0.0
09/11:00am 28.9 31.4 21.7 65 4.8 ESE 11 30 6 16 - - 0.0
09/10:30am 28.8 30.4 20.8 62 5.3 ESE 13 24 7 13 - - 0.0
09/10:00am 27.4 27.8 20.7 67 4.4 SE 19 28 10 15 - - 0.0
09/09:30am 27.8 28.6 21.3 67 4.3 SE 19 32 10 17 - - 0.0
09/09:00am 26.9 27.2 20.7 69 4.1 SE 20 30 11 16 - - 0.0
09/08:30am 27.2 28.8 21.5 71 3.8 SE 15 24 8 13 - - 0.0
09/08:00am 26.1 26.4 20.4 71 3.7 SE 19 30 10 16 - - 0.0
09/07:30am 25.7 26.3 20.3 72 3.5 SE 17 26 9 14 - - 0.0
09/07:00am 24.9 26.9 19.9 74 3.2 SSE 9 17 5 9 - - 0.0
09/06:30am 23.9 25.2 19.4 76 2.9 SSE 11 19 6 10 - - 0.0
09/06:00am 22.8 24.2 18.6 77 2.7 SSE 9 17 5 9 - - 0.0
09/05:30am 22.1 23.3 18.3 79 2.4 S 9 15 5 8 - - 0.0
09/05:00am 21.9 23.5 18.3 80 2.3 SSE 7 17 4 9 - - 0.0
09/04:30am 21.7 23.0 18.5 82 2.0 S 9 17 5 9 - - 0.0
09/04:00am 21.9 23.3 18.7 82 2.0 SSE 9 17 5 9 - - 0.0
09/03:30am 21.9 23.4 18.9 83 1.9 SSE 9 17 5 9 - - 0.0
09/03:00am 22.0 23.5 19.0 83 1.9 SSE 9 15 5 8 - - 0.0
09/02:30am 22.2 23.5 19.2 83 1.9 SSE 11 19 6 10 - - 0.0
09/02:00am 22.2 23.5 19.2 83 1.9 SSE 11 17 6 9 - - 0.0
09/01:30am 22.4 23.8 19.6 84 1.8 SSE 11 22 6 12 - - 0.0
09/01:00am 22.5 24.1 20.0 86 1.6 SSE 11 19 6 10 - - 0.0
09/12:30am 22.7 24.5 20.4 87 1.5 S 11 19 6 10 - - 0.0
09/12:00am 22.8 25.0 20.5 87 1.5 SSE 9 13 5 7 - - 0.0
 
Date/Time
EST
Temp
°C
App
Temp
°C
Dew
Point
°C
Rel
Hum
%
Delta-T
°C
Wind Press
QNH
hPa
Press
MSL
hPa
Rain since
9am
mm
Dir  Spd
km/h
Gust
km/h
Spd
kts
Gust
kts
08/11:30pm 23.3 25.8 21.0 87 1.5 SSE 9 15 5 8 - - 0.0
08/11:00pm 23.8 27.0 21.3 86 1.6 S 6 13 3 7 - - 0.0
08/10:30pm 24.0 26.9 21.1 84 1.9 SSE 7 13 4 7 - - 0.0
08/10:00pm 24.1 26.6 21.0 83 2.0 SSE 9 19 5 10 - - 0.0
08/09:30pm 24.0 26.1 20.9 83 2.0 SE 11 26 6 14 - - 0.0
08/09:00pm 24.0 26.2 21.1 84 1.9 SE 11 22 6 12 - - 0.0
08/08:30pm 24.0 26.5 21.1 84 1.9 SE 9 17 5 9 - - 0.0
08/08:00pm 23.7 26.1 20.8 84 1.9 SE 9 17 5 9 - - 0.0
08/07:30pm 23.6 25.5 20.5 83 2.0 ESE 11 20 6 11 - - 0.0
08/07:00pm 24.0 26.0 20.7 82 2.2 ESE 11 19 6 10 - - 0.0
08/06:30pm 24.3 26.5 20.4 79 2.5 ESE 9 24 5 13 - - 0.0
08/06:00pm 24.6 25.3 20.5 78 2.7 ESE 17 28 9 15 - - 0.0
08/05:30pm 24.9 25.3 20.6 77 2.8 SE 19 33 10 18 - - 0.0
08/05:00pm 25.1 25.4 20.4 75 3.1 SE 19 35 10 19 - - 0.0
08/04:30pm 26.1 26.2 20.0 69 4.0 SE 19 33 10 18 - - 0.0
08/04:00pm 26.8 27.1 19.7 65 4.6 SE 17 32 9 17 - - 0.0
08/03:30pm 27.9 27.6 19.1 58 5.7 ESE 19 32 10 17 - - 0.0
08/03:00pm 27.6 26.9 18.3 57 5.9 ESE 19 33 10 18 - - 0.0
08/02:30pm 27.8 27.1 18.2 56 6.1 ESE 19 32 10 17 - - 0.0
08/02:00pm 27.8 27.2 18.5 57 6.0 E 19 28 10 15 - - 0.0
08/01:30pm 28.3 28.7 19.0 57 6.0 ESE 15 28 8 15 - - 0.0
08/01:00pm 29.2 29.3 18.3 51 7.0 SE 15 24 8 13 - - 0.0
08/12:30pm 28.4 27.8 17.6 52 6.8 SE 17 26 9 14 - - 0.0
08/12:00pm 28.5 27.8 17.4 51 7.0 SE 17 30 9 16 - - 0.0
08/11:30am 27.9 27.7 17.7 53 6.5 ESE 15 26 8 14 - - 0.0
08/11:00am 27.6 28.1 18.3 57 5.9 SE 13 24 7 13 - - 0.0
08/10:30am 26.4 26.2 17.7 58 5.5 SE 15 28 8 15 - - 0.0
08/10:00am 25.4 25.2 17.6 62 4.9 SE 15 28 8 15 - - 0.0
08/09:30am 25.3 25.1 17.7 62 4.8 SE 15 28 8 15 - - 0.0
08/09:00am 25.4 25.7 17.8 62 4.8 SSE 13 22 7 12 - - 0.0
08/08:30am 25.3 25.1 18.5 66 4.3 SE 17 28 9 15 - - 0.0
08/08:00am 24.8 25.0 18.5 68 4.0 SSE 15 26 8 14 - - 0.0
08/07:30am 24.2 25.5 18.4 70 3.7 SSE 9 22 5 12 - - 0.0
08/07:00am 23.6 24.2 18.5 73 3.2 SSE 13 24 7 13 - - 0.0
08/06:30am 23.3 23.9 18.6 75 3.0 SSE 13 20 7 11 - - 0.0
08/06:00am 23.2 24.8 19.2 78 2.6 SSE 9 19 5 10 - - 0.0
08/05:30am 22.6 24.1 19.0 80 2.3 SSE 9 19 5 10 - - 0.0
08/05:00am 22.3 23.4 18.9 81 2.2 SSE 11 19 6 10 - - 0.0
08/04:30am 22.1 22.7 18.7 81 2.1 SSE 13 20 7 11 - - 0.0
08/04:00am 22.1 23.6 18.9 82 2.0 SSE 9 17 5 9 - - 0.0
08/03:30am 22.2 23.7 19.0 82 2.0 SE 9 17 5 9 - - 0.0
08/03:00am 22.4 22.7 18.8 80 2.3 SSE 15 24 8 13 - - 0.0
08/02:30am 22.4 23.2 19.0 81 2.2 SSE 13 20 7 11 - - 0.0
08/02:00am 22.4 23.6 19.0 81 2.2 SSE 11 20 6 11 - - 0.0
08/01:30am 22.5 23.7 19.1 81 2.2 SE 11 19 6 10 - - 0.0
08/01:00am 22.6 24.6 19.2 81 2.2 SE 7 19 4 10 - - 0.0
08/12:30am 22.8 23.2 19.0 79 2.4 SE 15 24 8 13 - - 0.0
08/12:00am 23.0 23.9 19.2 79 2.4 SE 13 24 7 13 - - 0.0
 
Date/Time
EST
Temp
°C
App
Temp
°C
Dew
Point
°C
Rel
Hum
%
Delta-T
°C
Wind Press
QNH
hPa
Press
MSL
hPa
Rain since
9am
mm
Dir  Spd
km/h
Gust
km/h
Spd
kts
Gust
kts
07/11:30pm 23.1 24.0 19.3 79 2.4 SE 13 28 7 15 - - 0.0
07/11:00pm 23.3 24.6 19.2 78 2.6 SE 11 22 6 12 - - 0.0
07/10:30pm 23.4 23.6 19.3 78 2.6 SE 17 26 9 14 - - 0.0
07/10:00pm 23.5 24.1 19.4 78 2.6 SSE 15 28 8 15 - - 0.0
07/09:30pm 23.6 24.2 19.5 78 2.6 SSE 15 30 8 16 - - 0.0
07/09:00pm 23.6 24.0 19.9 80 2.4 SSE 17 32 9 17 - - 0.0
07/08:30pm 23.8 24.2 19.9 79 2.5 SSE 17 28 9 15 - - 0.0
07/08:00pm 23.9 24.9 20.2 80 2.4 SSE 15 32 8 17 - - 0.0
07/07:30pm 24.0 25.8 20.3 80 2.4 SSE 11 26 6 14 - - 0.0
07/07:00pm 24.3 25.4 20.4 79 2.5 SE 15 28 8 15 - - 0.0
07/06:30pm 24.8 25.9 20.5 77 2.8 SE 15 26 8 14 - - 0.0

Latest Capital City Observations: Canberra | Sydney | Melbourne | Brisbane | Adelaide | Perth | Hobart | Darwin

Other formats

Comma delimited format used in spreadsheet applications
http://www.bom.gov.au/fwo/IDQ60901/IDQ60901.94561.axf

JavaScript Object Notation format (JSON) in row-major order
http://www.bom.gov.au/fwo/IDQ60901/IDQ60901.94561.json

Data quality

Most of these data are generated automatically and are frequently updated. Quality checks on data are not normally performed. It is possible for incorrect values to appear. Refer to information at About Latest Weather Observations and please check the disclaimer before using these data.